sensor_id;sensor_type;location;lat;lon;timestamp;P1;durP1;ratioP1;P2;durP2;ratioP2
52138;SDS011;38131;53.256;6.460;2022-11-04T00:00:40;11.82;;;10.00;;
52138;SDS011;38131;53.256;6.460;2022-11-04T00:06:11;14.32;;;10.85;;
52138;SDS011;38131;53.256;6.460;2022-11-04T00:08:46;14.68;;;11.55;;
52138;SDS011;38131;53.256;6.460;2022-11-04T00:11:56;14.07;;;10.98;;
52138;SDS011;38131;53.256;6.460;2022-11-04T00:18:39;12.45;;;9.63;;
52138;SDS011;38131;53.256;6.460;2022-11-04T00:21:11;14.52;;;11.82;;
52138;SDS011;38131;53.256;6.460;2022-11-04T00:23:55;14.98;;;10.88;;
52138;SDS011;38131;53.256;6.460;2022-11-04T00:26:40;12.35;;;10.40;;
52138;SDS011;38131;53.256;6.460;2022-11-04T00:29:44;7.15;;;6.38;;
52138;SDS011;38131;53.256;6.460;2022-11-04T00:32:33;5.67;;;4.63;;
52138;SDS011;38131;53.256;6.460;2022-11-04T00:38:33;5.65;;;4.40;;
52138;SDS011;38131;53.256;6.460;2022-11-04T03:13:08;4.85;;;0.35;;
52138;SDS011;38131;53.256;6.460;2022-11-04T03:16:16;4.15;;;0.60;;
52138;SDS011;38131;53.256;6.460;2022-11-04T03:34:06;7.63;;;0.40;;
52138;SDS011;38131;53.256;6.460;2022-11-04T03:36:29;3.10;;;0.40;;
52138;SDS011;38131;53.256;6.460;2022-11-04T03:39:38;2.47;;;0.25;;
52138;SDS011;38131;53.256;6.460;2022-11-04T03:45:55;4.38;;;0.50;;
52138;SDS011;38131;53.256;6.460;2022-11-04T03:48:31;4.53;;;0.35;;
52138;SDS011;38131;53.256;6.460;2022-11-04T03:51:13;4.72;;;0.40;;
52138;SDS011;38131;53.256;6.460;2022-11-04T03:57:32;3.40;;;0.38;;
52138;SDS011;38131;53.256;6.460;2022-11-04T04:11:35;3.97;;;0.38;;
52138;SDS011;38131;53.256;6.460;2022-11-04T04:14:47;2.60;;;0.30;;
52138;SDS011;38131;53.256;6.460;2022-11-04T04:20:37;1.50;;;0.40;;
52138;SDS011;38131;53.256;6.460;2022-11-04T04:23:08;4.93;;;0.50;;
52138;SDS011;38131;53.256;6.460;2022-11-04T04:26:02;2.35;;;0.30;;
52138;SDS011;38131;53.256;6.460;2022-11-04T04:29:11;2.70;;;0.38;;
52138;SDS011;38131;53.256;6.460;2022-11-04T04:31:42;2.13;;;0.30;;
52138;SDS011;38131;53.256;6.460;2022-11-04T04:34:33;1.30;;;0.30;;
52138;SDS011;38131;53.256;6.460;2022-11-04T04:37:18;1.63;;;0.20;;
52138;SDS011;38131;53.256;6.460;2022-11-04T04:39:54;5.28;;;0.60;;
52138;SDS011;38131;53.256;6.460;2022-11-04T04:43:19;1.58;;;0.43;;
52138;SDS011;38131;53.256;6.460;2022-11-04T04:46:07;3.75;;;0.63;;
52138;SDS011;38131;53.256;6.460;2022-11-04T04:48:39;1.73;;;0.50;;
52138;SDS011;38131;53.256;6.460;2022-11-04T04:51:09;3.20;;;0.50;;
52138;SDS011;38131;53.256;6.460;2022-11-04T04:53:37;5.03;;;0.55;;
52138;SDS011;38131;53.256;6.460;2022-11-04T04:56:03;2.78;;;0.40;;
52138;SDS011;38131;53.256;6.460;2022-11-04T05:00:58;2.95;;;0.40;;
52138;SDS011;38131;53.256;6.460;2022-11-04T05:03:50;5.65;;;0.70;;
52138;SDS011;38131;53.256;6.460;2022-11-04T05:06:24;5.57;;;0.63;;
52138;SDS011;38131;53.256;6.460;2022-11-04T05:08:52;2.05;;;0.63;;
52138;SDS011;38131;53.256;6.460;2022-11-04T05:11:19;1.58;;;0.30;;
52138;SDS011;38131;53.256;6.460;2022-11-04T05:13:49;4.53;;;0.50;;
52138;SDS011;38131;53.256;6.460;2022-11-04T05:16:26;3.05;;;0.47;;
52138;SDS011;38131;53.256;6.460;2022-11-04T05:18:52;1.50;;;0.38;;
52138;SDS011;38131;53.256;6.460;2022-11-04T05:21:40;3.95;;;0.65;;
52138;SDS011;38131;53.256;6.460;2022-11-04T05:24:21;3.80;;;0.60;;
52138;SDS011;38131;53.256;6.460;2022-11-04T05:26:49;1.73;;;0.40;;
52138;SDS011;38131;53.256;6.460;2022-11-04T05:32:41;3.70;;;0.45;;
52138;SDS011;38131;53.256;6.460;2022-11-04T05:35:09;2.58;;;0.60;;
52138;SDS011;38131;53.256;6.460;2022-11-04T05:37:36;6.13;;;0.30;;
52138;SDS011;38131;53.256;6.460;2022-11-04T05:42:46;3.22;;;0.35;;
52138;SDS011;38131;53.256;6.460;2022-11-04T05:45:23;3.58;;;0.28;;
52138;SDS011;38131;53.256;6.460;2022-11-04T05:50:34;2.75;;;0.40;;
52138;SDS011;38131;53.256;6.460;2022-11-04T05:53:01;2.53;;;0.47;;
52138;SDS011;38131;53.256;6.460;2022-11-04T05:55:38;1.25;;;0.45;;
52138;SDS011;38131;53.256;6.460;2022-11-04T05:58:12;1.17;;;0.30;;
52138;SDS011;38131;53.256;6.460;2022-11-04T06:03:50;3.20;;;0.40;;
52138;SDS011;38131;53.256;6.460;2022-11-04T06:06:34;1.70;;;0.40;;
52138;SDS011;38131;53.256;6.460;2022-11-04T06:12:20;4.75;;;0.55;;
52138;SDS011;38131;53.256;6.460;2022-11-04T06:14:51;4.07;;;0.60;;
52138;SDS011;38131;53.256;6.460;2022-11-04T06:17:27;4.25;;;0.52;;
52138;SDS011;38131;53.256;6.460;2022-11-04T06:19:55;2.65;;;0.32;;
52138;SDS011;38131;53.256;6.460;2022-11-04T06:22:41;3.92;;;0.47;;
52138;SDS011;38131;53.256;6.460;2022-11-04T06:25:08;3.13;;;0.50;;
52138;SDS011;38131;53.256;6.460;2022-11-04T06:30:27;1.70;;;0.32;;
52138;SDS011;38131;53.256;6.460;2022-11-04T06:32:55;2.38;;;0.25;;
52138;SDS011;38131;53.256;6.460;2022-11-04T06:35:21;7.57;;;0.57;;
52138;SDS011;38131;53.256;6.460;2022-11-04T06:40:44;5.95;;;0.32;;
52138;SDS011;38131;53.256;6.460;2022-11-04T06:45:40;4.32;;;0.30;;
52138;SDS011;38131;53.256;6.460;2022-11-04T06:48:13;3.65;;;0.35;;
52138;SDS011;38131;53.256;6.460;2022-11-04T06:50:39;3.38;;;0.32;;
52138;SDS011;38131;53.256;6.460;2022-11-04T06:53:08;3.25;;;0.40;;
52138;SDS011;38131;53.256;6.460;2022-11-04T06:55:37;1.15;;;0.25;;
52138;SDS011;38131;53.256;6.460;2022-11-04T06:58:09;2.83;;;0.50;;
52138;SDS011;38131;53.256;6.460;2022-11-04T07:03:28;3.15;;;0.65;;
52138;SDS011;38131;53.256;6.460;2022-11-04T07:08:44;5.05;;;0.90;;
52138;SDS011;38131;53.256;6.460;2022-11-04T07:11:11;3.05;;;0.70;;
52138;SDS011;38131;53.256;6.460;2022-11-04T07:13:39;4.60;;;0.95;;
52138;SDS011;38131;53.256;6.460;2022-11-04T07:16:06;3.33;;;1.00;;
52138;SDS011;38131;53.256;6.460;2022-11-04T07:18:52;5.38;;;0.88;;
52138;SDS011;38131;53.256;6.460;2022-11-04T07:21:19;5.38;;;1.00;;
52138;SDS011;38131;53.256;6.460;2022-11-04T07:23:51;2.85;;;1.42;;
52138;SDS011;38131;53.256;6.460;2022-11-04T07:26:17;5.25;;;1.00;;
52138;SDS011;38131;53.256;6.460;2022-11-04T07:28:44;5.25;;;1.02;;
52138;SDS011;38131;53.256;6.460;2022-11-04T07:31:11;8.15;;;1.00;;
52138;SDS011;38131;53.256;6.460;2022-11-04T07:33:39;4.07;;;1.08;;
52138;SDS011;38131;53.256;6.460;2022-11-04T07:36:06;4.63;;;0.82;;
52138;SDS011;38131;53.256;6.460;2022-11-04T07:38:43;5.72;;;1.20;;
52138;SDS011;38131;53.256;6.460;2022-11-04T07:41:09;6.38;;;1.08;;
52138;SDS011;38131;53.256;6.460;2022-11-04T07:43:39;2.45;;;0.77;;
52138;SDS011;38131;53.256;6.460;2022-11-04T07:46:06;6.32;;;1.10;;
52138;SDS011;38131;53.256;6.460;2022-11-04T07:48:37;8.00;;;1.15;;
52138;SDS011;38131;53.256;6.460;2022-11-04T07:51:05;6.20;;;0.98;;
52138;SDS011;38131;53.256;6.460;2022-11-04T07:53:32;2.63;;;0.85;;
52138;SDS011;38131;53.256;6.460;2022-11-04T07:56:04;7.32;;;1.48;;
52138;SDS011;38131;53.256;6.460;2022-11-04T07:58:31;2.58;;;0.90;;
52138;SDS011;38131;53.256;6.460;2022-11-04T08:04:40;6.68;;;1.48;;
52138;SDS011;38131;53.256;6.460;2022-11-04T08:07:42;4.30;;;0.93;;
52138;SDS011;38131;53.256;6.460;2022-11-04T08:10:13;4.82;;;0.88;;
52138;SDS011;38131;53.256;6.460;2022-11-04T08:12:42;3.45;;;0.80;;
52138;SDS011;38131;53.256;6.460;2022-11-04T08:15:30;3.60;;;0.90;;
52138;SDS011;38131;53.256;6.460;2022-11-04T08:18:23;6.85;;;1.08;;
52138;SDS011;38131;53.256;6.460;2022-11-04T08:21:13;6.75;;;1.20;;
52138;SDS011;38131;53.256;6.460;2022-11-04T08:23:40;5.93;;;1.00;;
52138;SDS011;38131;53.256;6.460;2022-11-04T08:26:37;2.72;;;0.63;;
52138;SDS011;38131;53.256;6.460;2022-11-04T08:32:19;6.28;;;1.05;;
52138;SDS011;38131;53.256;6.460;2022-11-04T08:34:47;6.70;;;0.82;;
52138;SDS011;38131;53.256;6.460;2022-11-04T08:37:19;3.17;;;1.10;;
52138;SDS011;38131;53.256;6.460;2022-11-04T08:39:59;5.07;;;1.10;;
52138;SDS011;38131;53.256;6.460;2022-11-04T08:42:31;5.38;;;1.08;;
52138;SDS011;38131;53.256;6.460;2022-11-04T08:45:39;2.67;;;0.82;;
52138;SDS011;38131;53.256;6.460;2022-11-04T08:48:27;3.47;;;1.20;;
52138;SDS011;38131;53.256;6.460;2022-11-04T08:53:58;3.60;;;0.77;;
52138;SDS011;38131;53.256;6.460;2022-11-04T08:56:40;9.40;;;1.20;;
52138;SDS011;38131;53.256;6.460;2022-11-04T08:59:27;3.45;;;0.70;;
52138;SDS011;38131;53.256;6.460;2022-11-04T09:01:55;4.38;;;0.80;;
52138;SDS011;38131;53.256;6.460;2022-11-04T09:04:29;5.70;;;0.85;;
52138;SDS011;38131;53.256;6.460;2022-11-04T09:07:01;6.32;;;1.23;;
52138;SDS011;38131;53.256;6.460;2022-11-04T09:09:29;3.80;;;1.00;;
52138;SDS011;38131;53.256;6.460;2022-11-04T09:15:36;2.55;;;0.70;;
52138;SDS011;38131;53.256;6.460;2022-11-04T09:18:12;4.40;;;0.73;;
52138;SDS011;38131;53.256;6.460;2022-11-04T09:20:40;5.88;;;1.08;;
52138;SDS011;38131;53.256;6.460;2022-11-04T09:23:50;5.22;;;0.68;;
52138;SDS011;38131;53.256;6.460;2022-11-04T09:26:55;2.67;;;0.75;;
52138;SDS011;38131;53.256;6.460;2022-11-04T09:33:06;5.68;;;0.90;;
52138;SDS011;38131;53.256;6.460;2022-11-04T09:39:50;3.65;;;0.98;;
52138;SDS011;38131;53.256;6.460;2022-11-04T09:49:16;7.63;;;0.93;;
52138;SDS011;38131;53.256;6.460;2022-11-04T09:56:14;4.43;;;0.60;;
52138;SDS011;38131;53.256;6.460;2022-11-04T09:59:01;3.13;;;0.73;;
52138;SDS011;38131;53.256;6.460;2022-11-04T10:04:30;6.25;;;0.63;;
52138;SDS011;38131;53.256;6.460;2022-11-04T10:07:37;5.15;;;0.65;;
52138;SDS011;38131;53.256;6.460;2022-11-04T10:29:09;5.00;;;0.80;;
52138;SDS011;38131;53.256;6.460;2022-11-04T10:45:48;4.65;;;1.38;;
52138;SDS011;38131;53.256;6.460;2022-11-04T11:07:40;5.47;;;0.80;;
